Time,TemperatureF,DewpointF,PressureIn,WindDirection,WindDirectionDegrees,WindSpeedMPH,WindSpeedGustMPH,Humidity,HourlyPrecipIn,Conditions,Clouds,dailyrainin,SoftwareType,DateUTC
2013-07-23 00:00:00,69.6,59.8,29.85,North,0,0.0,1.0,71,0.00,,CLR,0.00,VWS V14.00,2013-07-23 07:00:00,
2013-07-23 00:01:00,69.7,60.3,29.85,North,0,0.0,0.0,72,0.00,,CLR,0.00,VWS V14.00,2013-07-23 07:01:00,
2013-07-23 00:06:00,69.6,59.8,29.85,North,0,0.0,0.0,71,0.00,,CLR,0.00,VWS V14.00,2013-07-23 07:06:00,
2013-07-23 00:11:00,69.2,59.4,29.84,North,0,0.0,0.0,71,0.00,,CLR,0.00,VWS V14.00,2013-07-23 07:11:00,
2013-07-23 00:16:00,68.9,59.5,29.84,North,0,0.0,0.0,72,0.00,,CLR,0.00,VWS V14.00,2013-07-23 07:16:00,
2013-07-23 00:21:00,69.1,60.1,29.85,North,0,0.0,0.0,73,0.00,,CLR,0.00,VWS V14.00,2013-07-23 07:21:00,
2013-07-23 00:26:00,69.0,59.6,29.85,North,0,0.0,0.0,72,0.00,,CLR,0.00,VWS V14.00,2013-07-23 07:26:00,
2013-07-23 00:30:00,68.6,59.2,29.85,North,0,0.0,0.0,72,0.00,,CLR,0.00,VWS V14.00,2013-07-23 07:30:00,
2013-07-23 00:31:00,68.8,59.4,29.85,North,0,0.0,0.0,72,0.00,,CLR,0.00,VWS V14.00,2013-07-23 07:31:00,
2013-07-23 00:36:00,68.7,58.9,29.85,NNW,329,0.0,2.0,71,0.00,,CLR,0.00,VWS V14.00,2013-07-23 07:36:00,
2013-07-23 00:41:00,68.4,58.6,29.85,NNW,331,0.0,2.0,71,0.00,,CLR,0.00,VWS V14.00,2013-07-23 07:41:00,
2013-07-23 00:46:00,68.1,58.3,29.85,NNW,327,0.0,2.0,71,0.00,,CLR,0.00,VWS V14.00,2013-07-23 07:46:00,
2013-07-23 00:51:00,68.1,58.7,29.86,NNW,331,0.0,2.0,72,0.00,,CLR,0.00,VWS V14.00,2013-07-23 07:51:00,
2013-07-23 00:56:00,68.0,58.7,29.85,North,0,0.0,2.0,72,0.00,,CLR,0.00,VWS V14.00,2013-07-23 07:56:00,
2013-07-23 01:00:00,67.7,58.4,29.86,North,0,0.0,2.0,72,0.00,,CLR,0.00,VWS V14.00,2013-07-23 08:00:00,
2013-07-23 01:01:00,67.8,58.5,29.86,North,0,0.0,0.0,72,0.00,,CLR,0.00,VWS V14.00,2013-07-23 08:01:00,
2013-07-23 01:06:00,67.8,58.8,29.86,North,0,0.0,0.0,73,0.00,,CLR,0.00,VWS V14.00,2013-07-23 08:06:00,
2013-07-23 01:11:00,67.6,58.7,29.85,North,0,0.0,0.0,73,0.00,,CLR,0.00,VWS V14.00,2013-07-23 08:11:00,
2013-07-23 01:16:00,67.8,58.8,29.85,North,0,0.0,0.0,73,0.00,,CLR,0.00,VWS V14.00,2013-07-23 08:16:00,
2013-07-23 01:21:00,67.7,58.7,29.85,North,0,0.0,0.0,73,0.00,,CLR,0.00,VWS V14.00,2013-07-23 08:21:00,
2013-07-23 01:26:00,67.4,58.8,29.85,North,0,0.0,0.0,74,0.00,,CLR,0.00,VWS V14.00,2013-07-23 08:26:00,
2013-07-23 01:30:00,67.4,58.8,29.86,North,0,0.0,0.0,74,0.00,,CLR,0.00,VWS V14.00,2013-07-23 08:30:00,
2013-07-23 01:31:00,67.6,59.0,29.85,North,0,0.0,0.0,74,0.00,,CLR,0.00,VWS V14.00,2013-07-23 08:31:00,
2013-07-23 01:36:00,67.4,58.8,29.86,North,0,0.0,0.0,74,0.00,,CLR,0.00,VWS V14.00,2013-07-23 08:36:00,
2013-07-23 01:41:00,67.3,58.7,29.86,North,0,0.0,0.0,74,0.00,,CLR,0.00,VWS V14.00,2013-07-23 08:41:00,
2013-07-23 01:46:00,67.5,58.9,29.86,North,0,0.0,0.0,74,0.00,,CLR,0.00,VWS V14.00,2013-07-23 08:46:00,
2013-07-23 01:51:00,67.5,58.9,29.86,North,0,0.0,0.0,74,0.00,,CLR,0.00,VWS V14.00,2013-07-23 08:51:00,
2013-07-23 01:56:00,67.4,58.8,29.86,North,0,0.0,0.0,74,0.00,,CLR,0.00,VWS V14.00,2013-07-23 08:56:00,
2013-07-23 02:00:00,67.6,59.0,29.86,North,0,0.0,0.0,74,0.00,,CLR,0.00,VWS V14.00,2013-07-23 09:00:00,
2013-07-23 02:01:00,67.6,59.0,29.85,North,0,0.0,0.0,74,0.00,,CLR,0.00,VWS V14.00,2013-07-23 09:01:00,
2013-07-23 02:06:00,67.4,58.8,29.86,North,0,0.0,0.0,74,0.00,,CLR,0.00,VWS V14.00,2013-07-23 09:06:00,
2013-07-23 02:11:00,67.6,59.4,29.86,North,0,0.0,0.0,75,0.00,,CLR,0.00,VWS V14.00,2013-07-23 09:11:00,
2013-07-23 02:16:00,67.4,58.8,29.85,North,0,0.0,0.0,74,0.00,,CLR,0.00,VWS V14.00,2013-07-23 09:16:00,
2013-07-23 02:21:00,67.3,58.7,29.86,North,0,0.0,0.0,74,0.00,,CLR,0.00,VWS V14.00,2013-07-23 09:21:00,
2013-07-23 02:26:00,67.5,58.9,29.85,North,0,0.0,0.0,74,0.00,,CLR,0.00,VWS V14.00,2013-07-23 09:26:00,
2013-07-23 02:30:00,67.4,58.8,29.85,North,0,0.0,0.0,74,0.00,,CLR,0.00,VWS V14.00,2013-07-23 09:30:00,
2013-07-23 02:31:00,67.0,58.5,29.85,North,0,0.0,0.0,74,0.00,,CLR,0.00,VWS V14.00,2013-07-23 09:31:00,
2013-07-23 02:36:00,67.1,58.9,29.85,North,0,0.0,0.0,75,0.00,,CLR,0.00,VWS V14.00,2013-07-23 09:36:00,
2013-07-23 02:41:00,67.0,58.8,29.85,North,0,0.0,0.0,75,0.00,,CLR,0.00,VWS V14.00,2013-07-23 09:41:00,
2013-07-23 02:46:00,67.1,58.5,29.85,North,0,0.0,0.0,74,0.00,,CLR,0.00,VWS V14.00,2013-07-23 09:46:00,
2013-07-23 02:51:00,67.0,58.8,29.85,North,0,0.0,0.0,75,0.00,,CLR,0.00,VWS V14.00,2013-07-23 09:51:00,
2013-07-23 02:56:00,67.0,58.5,29.85,North,0,0.0,0.0,74,0.00,,CLR,0.00,VWS V14.00,2013-07-23 09:56:00,
2013-07-23 03:00:00,67.0,58.5,29.85,North,0,0.0,1.0,74,0.00,,CLR,0.00,VWS V14.00,2013-07-23 10:00:00,
2013-07-23 03:01:00,66.8,58.3,29.85,North,0,0.0,0.0,74,0.00,,CLR,0.00,VWS V14.00,2013-07-23 10:01:00,
2013-07-23 03:06:00,66.7,58.2,29.84,North,0,0.0,0.0,74,0.00,,CLR,0.00,VWS V14.00,2013-07-23 10:06:00,
2013-07-23 03:11:00,66.8,58.3,29.84,North,0,0.0,0.0,74,0.00,,CLR,0.00,VWS V14.00,2013-07-23 10:11:00,
2013-07-23 03:16:00,66.5,58.3,29.84,North,0,0.0,0.0,75,0.00,,CLR,0.00,VWS V14.00,2013-07-23 10:16:00,
2013-07-23 03:21:00,66.6,58.4,29.84,North,0,0.0,0.0,75,0.00,,CLR,0.00,VWS V14.00,2013-07-23 10:21:00,
2013-07-23 03:26:00,66.5,58.3,29.84,North,0,0.0,0.0,75,0.00,,CLR,0.00,VWS V14.00,2013-07-23 10:26:00,
2013-07-23 03:30:00,66.9,58.7,29.84,North,0,0.0,0.0,75,0.00,,CLR,0.00,VWS V14.00,2013-07-23 10:30:00,
2013-07-23 03:31:00,66.5,58.3,29.84,North,0,0.0,0.0,75,0.00,,CLR,0.00,VWS V14.00,2013-07-23 10:31:00,
2013-07-23 03:36:00,66.8,58.6,29.84,North,0,0.0,0.0,75,0.00,,CLR,0.00,VWS V14.00,2013-07-23 10:36:00,
2013-07-23 03:41:00,66.8,58.6,29.84,North,0,0.0,0.0,75,0.00,,CLR,0.00,VWS V14.00,2013-07-23 10:41:00,
2013-07-23 03:46:00,66.8,59.0,29.86,North,0,0.0,0.0,76,0.00,,CLR,0.00,VWS V14.00,2013-07-23 10:46:00,
2013-07-23 03:51:00,66.6,58.4,29.84,North,0,0.0,1.0,75,0.00,,CLR,0.00,VWS V14.00,2013-07-23 10:51:00,
2013-07-23 03:56:00,66.4,58.6,29.86,North,0,0.0,1.0,76,0.00,,CLR,0.00,VWS V14.00,2013-07-23 10:56:00,
2013-07-23 04:00:00,66.3,58.9,29.86,North,0,0.0,1.0,77,0.00,,CLR,0.00,VWS V14.00,2013-07-23 11:00:00,
2013-07-23 04:01:00,66.6,59.2,29.86,North,0,0.0,1.0,77,0.00,,CLR,0.00,VWS V14.00,2013-07-23 11:01:00,
2013-07-23 04:06:00,66.2,58.4,29.87,North,0,0.0,1.0,76,0.00,,CLR,0.00,VWS V14.00,2013-07-23 11:06:00,
2013-07-23 04:11:00,66.4,58.6,29.86,North,0,0.0,1.0,76,0.00,,CLR,0.00,VWS V14.00,2013-07-23 11:11:00,
2013-07-23 04:16:00,66.2,58.8,29.86,North,0,0.0,1.0,77,0.00,,CLR,0.00,VWS V14.00,2013-07-23 11:16:00,
2013-07-23 04:21:00,66.3,58.5,29.86,North,0,0.0,1.0,76,0.00,,CLR,0.00,VWS V14.00,2013-07-23 11:21:00,
2013-07-23 04:26:00,66.5,58.7,29.86,North,0,0.0,1.0,76,0.00,,CLR,0.00,VWS V14.00,2013-07-23 11:26:00,
2013-07-23 04:30:00,66.1,58.3,29.85,North,0,0.0,1.0,76,0.00,,CLR,0.00,VWS V14.00,2013-07-23 11:30:00,
2013-07-23 04:31:00,66.0,58.6,29.85,North,0,0.0,0.0,77,0.00,,CLR,0.00,VWS V14.00,2013-07-23 11:31:00,
2013-07-23 04:36:00,66.1,58.3,29.86,North,0,0.0,0.0,76,0.00,,CLR,0.00,VWS V14.00,2013-07-23 11:36:00,
2013-07-23 04:41:00,66.3,58.9,29.86,North,0,0.0,0.0,77,0.00,,CLR,0.00,VWS V14.00,2013-07-23 11:41:00,
2013-07-23 04:46:00,66.3,58.9,29.87,North,0,0.0,0.0,77,0.00,,FEW100,0.00,VWS V14.00,2013-07-23 11:46:00,
2013-07-23 04:51:00,66.2,58.8,29.89,North,0,0.0,0.0,77,0.00,,FEW100,0.00,VWS V14.00,2013-07-23 11:51:00,
2013-07-23 04:56:00,66.2,58.8,29.89,North,0,0.0,0.0,77,0.00,,FEW100,0.00,VWS V14.00,2013-07-23 11:56:00,
2013-07-23 05:00:00,66.0,58.6,29.89,North,0,0.0,0.0,77,0.00,,CLR,0.00,VWS V14.00,2013-07-23 12:00:00,
2013-07-23 05:01:00,66.2,58.8,29.89,North,0,0.0,0.0,77,0.00,,FEW100,0.00,VWS V14.00,2013-07-23 12:01:00,
2013-07-23 05:06:00,66.0,58.6,29.89,North,0,0.0,0.0,77,0.00,,FEW100,0.00,VWS V14.00,2013-07-23 12:06:00,
2013-07-23 05:11:00,66.0,58.6,29.88,North,0,0.0,0.0,77,0.00,,FEW100,0.00,VWS V14.00,2013-07-23 12:11:00,
2013-07-23 05:16:00,65.8,58.4,29.88,North,0,0.0,0.0,77,0.00,,FEW100,0.00,VWS V14.00,2013-07-23 12:16:00,
2013-07-23 05:21:00,65.9,58.1,29.88,North,0,0.0,0.0,76,0.00,,FEW100,0.00,VWS V14.00,2013-07-23 12:21:00,
2013-07-23 05:26:00,65.9,58.1,29.88,North,0,0.0,0.0,76,0.00,,FEW100,0.00,VWS V14.00,2013-07-23 12:26:00,
2013-07-23 05:30:00,65.6,58.2,29.88,North,0,0.0,0.0,77,0.00,,CLR,0.00,VWS V14.00,2013-07-23 12:30:00,
2013-07-23 05:31:00,65.8,58.4,29.88,North,0,0.0,0.0,77,0.00,,FEW100,0.00,VWS V14.00,2013-07-23 12:31:00,
2013-07-23 05:36:00,65.7,58.3,29.88,North,0,0.0,0.0,77,0.00,,FEW100,0.00,VWS V14.00,2013-07-23 12:36:00,
2013-07-23 05:41:00,65.5,58.5,29.88,North,0,0.0,0.0,78,0.00,,FEW100,0.00,VWS V14.00,2013-07-23 12:41:00,
2013-07-23 05:46:00,65.7,58.7,29.88,North,0,0.0,0.0,78,0.00,,FEW100,0.00,VWS V14.00,2013-07-23 12:46:00,
2013-07-23 05:51:00,65.7,58.7,29.88,North,0,0.0,0.0,78,0.00,,FEW100,0.00,VWS V14.00,2013-07-23 12:51:00,
2013-07-23 05:56:00,65.8,58.4,29.88,North,0,0.0,0.0,77,0.00,,FEW100,0.00,VWS V14.00,2013-07-23 12:56:00,
2013-07-23 06:00:00,65.6,58.2,29.88,North,0,0.0,0.0,77,0.00,,CLR,0.00,VWS V14.00,2013-07-23 13:00:00,
2013-07-23 06:01:00,65.8,58.4,29.88,North,0,0.0,0.0,77,0.00,,CLR,0.00,VWS V14.00,2013-07-23 13:01:00,
2013-07-23 06:06:00,65.7,59.0,29.89,North,0,0.0,0.0,79,0.00,,CLR,0.00,VWS V14.00,2013-07-23 13:06:00,
2013-07-23 06:11:00,65.6,58.6,29.88,North,0,0.0,0.0,78,0.00,,CLR,0.00,VWS V14.00,2013-07-23 13:11:00,
2013-07-23 06:16:00,65.7,58.7,29.88,North,0,0.0,0.0,78,0.00,,CLR,0.00,VWS V14.00,2013-07-23 13:16:00,
2013-07-23 06:21:00,65.8,58.4,29.88,North,0,0.0,0.0,77,0.00,,CLR,0.00,VWS V14.00,2013-07-23 13:21:00,
2013-07-23 06:26:00,65.9,58.9,29.87,North,0,0.0,0.0,78,0.00,,CLR,0.00,VWS V14.00,2013-07-23 13:26:00,
2013-07-23 06:30:00,65.9,59.2,29.87,North,0,0.0,0.0,79,0.00,,CLR,0.00,VWS V14.00,2013-07-23 13:30:00,
2013-07-23 06:31:00,65.8,58.8,29.87,North,0,0.0,0.0,78,0.00,,CLR,0.00,VWS V14.00,2013-07-23 13:31:00,
2013-07-23 06:36:00,65.9,58.9,29.87,North,0,0.0,0.0,78,0.00,,CLR,0.00,VWS V14.00,2013-07-23 13:36:00,
2013-07-23 06:41:00,66.0,59.3,29.88,North,0,0.0,0.0,79,0.00,,CLR,0.00,VWS V14.00,2013-07-23 13:41:00,
2013-07-23 06:46:00,65.9,58.9,29.87,North,0,0.0,0.0,78,0.00,,CLR,0.00,VWS V14.00,2013-07-23 13:46:00,
2013-07-23 06:51:00,65.9,58.9,29.88,North,0,0.0,0.0,78,0.00,,CLR,0.00,VWS V14.00,2013-07-23 13:51:00,
2013-07-23 06:56:00,65.9,58.5,29.87,North,0,0.0,0.0,77,0.00,,CLR,0.00,VWS V14.00,2013-07-23 13:56:00,
2013-07-23 07:00:00,66.0,59.0,29.87,North,0,0.0,0.0,78,0.00,,CLR,0.00,VWS V14.00,2013-07-23 14:00:00,
2013-07-23 07:01:00,66.2,58.8,29.87,North,0,0.0,0.0,77,0.00,,CLR,0.00,VWS V14.00,2013-07-23 14:01:00,
2013-07-23 07:06:00,66.2,58.8,29.87,North,0,0.0,0.0,77,0.00,,CLR,0.00,VWS V14.00,2013-07-23 14:06:00,
2013-07-23 07:11:00,66.0,58.6,29.87,North,0,0.0,0.0,77,0.00,,CLR,0.00,VWS V14.00,2013-07-23 14:11:00,
2013-07-23 07:16:00,66.4,59.0,29.87,North,0,0.0,0.0,77,0.00,,CLR,0.00,VWS V14.00,2013-07-23 14:16:00,
2013-07-23 07:21:00,66.3,58.9,29.88,North,0,0.0,1.0,77,0.00,,CLR,0.00,VWS V14.00,2013-07-23 14:21:00,
2013-07-23 07:26:00,66.3,58.9,29.89,North,357,0.0,1.0,77,0.00,,CLR,0.00,VWS V14.00,2013-07-23 14:26:00,
2013-07-23 07:30:00,66.5,59.1,29.88,North,357,0.0,1.0,77,0.00,,CLR,0.00,VWS V14.00,2013-07-23 14:30:00,
2013-07-23 07:31:00,66.6,59.2,29.89,North,357,0.0,0.0,77,0.00,,CLR,0.00,VWS V14.00,2013-07-23 14:31:00,
2013-07-23 07:36:00,66.4,59.0,29.88,North,357,0.0,0.0,77,0.00,,CLR,0.00,VWS V14.00,2013-07-23 14:36:00,
2013-07-23 07:41:00,66.3,58.9,29.88,North,357,0.0,0.0,77,0.00,,CLR,0.00,VWS V14.00,2013-07-23 14:41:00,
2013-07-23 07:46:00,66.8,59.7,29.88,North,357,0.0,0.0,78,0.00,,CLR,0.00,VWS V14.00,2013-07-23 14:46:00,
2013-07-23 07:51:00,66.6,59.5,29.88,North,357,0.0,0.0,78,0.00,,CLR,0.00,VWS V14.00,2013-07-23 14:51:00,
2013-07-23 07:56:00,66.9,59.5,29.88,North,357,0.0,0.0,77,0.00,,CLR,0.00,VWS V14.00,2013-07-23 14:56:00,
2013-07-23 08:00:00,67.1,59.3,29.88,North,357,0.0,0.0,76,0.00,,CLR,0.00,VWS V14.00,2013-07-23 15:00:00,
2013-07-23 08:01:00,67.2,59.4,29.88,North,357,0.0,0.0,76,0.00,,CLR,0.00,VWS V14.00,2013-07-23 15:01:00,
2013-07-23 08:06:00,67.2,59.4,29.88,North,357,0.0,0.0,76,0.00,,CLR,0.00,VWS V14.00,2013-07-23 15:06:00,
2013-07-23 08:11:00,67.4,59.6,29.88,North,358,0.0,1.0,76,0.00,,CLR,0.00,VWS V14.00,2013-07-23 15:11:00,
2013-07-23 08:16:00,67.7,59.5,29.89,North,357,0.0,1.0,75,0.00,,CLR,0.00,VWS V14.00,2013-07-23 15:16:00,
2013-07-23 08:21:00,67.7,59.5,29.89,NNW,333,0.0,2.0,75,0.00,,CLR,0.00,VWS V14.00,2013-07-23 15:21:00,
2013-07-23 08:26:00,67.9,59.7,29.89,NNW,335,0.0,2.0,75,0.00,,CLR,0.00,VWS V14.00,2013-07-23 15:26:00,
2013-07-23 08:30:00,67.9,59.3,29.89,NNW,335,0.0,2.0,74,0.00,,CLR,0.00,VWS V14.00,2013-07-23 15:30:00,
2013-07-23 08:31:00,68.0,59.8,29.89,NNW,335,0.0,0.0,75,0.00,,CLR,0.00,VWS V14.00,2013-07-23 15:31:00,
2013-07-23 08:36:00,68.4,59.8,29.89,NNW,335,1.0,1.0,74,0.00,,CLR,0.00,VWS V14.00,2013-07-23 15:36:00,
2013-07-23 08:41:00,68.9,59.9,29.90,NNW,335,0.0,1.0,73,0.00,,CLR,0.00,VWS V14.00,2013-07-23 15:41:00,
2013-07-23 08:46:00,68.8,59.8,29.90,NNW,335,0.0,1.0,73,0.00,,CLR,0.00,VWS V14.00,2013-07-23 15:46:00,
2013-07-23 08:51:00,69.5,60.1,29.90,NNW,341,0.0,1.0,72,0.00,,CLR,0.00,VWS V14.00,2013-07-23 15:51:00,
2013-07-23 08:56:00,69.8,60.4,29.90,North,9,0.0,3.0,72,0.00,,CLR,0.00,VWS V14.00,2013-07-23 15:56:00,
2013-07-23 09:00:00,69.7,60.3,29.90,North,11,0.0,3.0,72,0.00,,CLR,0.00,VWS V14.00,2013-07-23 16:00:00,
2013-07-23 09:01:00,70.0,60.2,29.90,North,11,0.0,1.0,71,0.00,,CLR,0.00,VWS V14.00,2013-07-23 16:01:00,
2013-07-23 09:06:00,70.2,60.4,29.90,NNE,14,0.0,1.0,71,0.00,,CLR,0.00,VWS V14.00,2013-07-23 16:06:00,
2013-07-23 09:11:00,70.6,60.3,29.90,NNE,14,0.0,1.0,70,0.00,,CLR,0.00,VWS V14.00,2013-07-23 16:11:00,
2013-07-23 09:16:00,70.9,60.6,29.90,North,11,0.0,1.0,70,0.00,,CLR,0.00,VWS V14.00,2013-07-23 16:16:00,
2013-07-23 09:21:00,71.0,60.7,29.90,North,11,0.0,1.0,70,0.00,,CLR,0.00,VWS V14.00,2013-07-23 16:21:00,
2013-07-23 09:26:00,71.2,60.5,29.90,North,11,0.0,1.0,69,0.00,,CLR,0.00,VWS V14.00,2013-07-23 16:26:00,
2013-07-23 09:30:00,71.6,60.9,29.90,North,11,0.0,1.0,69,0.00,,CLR,0.00,VWS V14.00,2013-07-23 16:30:00,
2013-07-23 09:31:00,71.4,60.7,29.91,North,11,1.0,1.0,69,0.00,,CLR,0.00,VWS V14.00,2013-07-23 16:31:00,
2013-07-23 09:36:00,71.6,60.5,29.89,NNE,15,0.0,1.0,68,0.00,,CLR,0.00,VWS V14.00,2013-07-23 16:36:00,
2013-07-23 09:41:00,72.2,61.1,29.90,NNE,13,0.0,1.0,68,0.00,,CLR,0.00,VWS V14.00,2013-07-23 16:41:00,
2013-07-23 09:46:00,72.5,60.9,29.90,NNE,12,0.0,1.0,67,0.00,,CLR,0.00,VWS V14.00,2013-07-23 16:46:00,
2013-07-23 09:51:00,72.8,60.8,29.90,North,6,0.0,1.0,66,0.00,,CLR,0.00,VWS V14.00,2013-07-23 16:51:00,
2013-07-23 09:56:00,73.3,61.7,29.90,North,6,0.0,1.0,67,0.00,,CLR,0.00,VWS V14.00,2013-07-23 16:56:00,
2013-07-23 10:00:00,73.3,61.3,29.90,North,6,0.0,1.0,66,0.00,,CLR,0.00,VWS V14.00,2013-07-23 17:00:00,
2013-07-23 10:01:00,73.3,60.8,29.89,North,6,0.0,0.0,65,0.00,,CLR,0.00,VWS V14.00,2013-07-23 17:01:00,
2013-07-23 10:06:00,73.7,60.8,29.89,North,6,0.0,0.0,64,0.00,,CLR,0.00,VWS V14.00,2013-07-23 17:06:00,
2013-07-23 10:11:00,74.3,60.9,29.90,North,6,0.0,1.0,63,0.00,,CLR,0.00,VWS V14.00,2013-07-23 17:11:00,
2013-07-23 10:16:00,74.4,61.0,29.89,North,6,0.0,1.0,63,0.00,,CLR,0.00,VWS V14.00,2013-07-23 17:16:00,
2013-07-23 10:21:00,75.0,61.6,29.90,North,6,0.0,1.0,63,0.00,,CLR,0.00,VWS V14.00,2013-07-23 17:21:00,
2013-07-23 10:26:00,75.1,61.7,29.89,North,6,0.0,1.0,63,0.00,,CLR,0.00,VWS V14.00,2013-07-23 17:26:00,
2013-07-23 10:30:00,75.5,61.6,29.89,North,7,0.0,1.0,62,0.00,,CLR,0.00,VWS V14.00,2013-07-23 17:30:00,
2013-07-23 10:31:00,75.6,61.7,29.90,North,7,0.0,0.0,62,0.00,,CLR,0.00,VWS V14.00,2013-07-23 17:31:00,
2013-07-23 10:36:00,76.3,61.9,29.89,North,4,0.0,1.0,61,0.00,,CLR,0.00,VWS V14.00,2013-07-23 17:36:00,
2013-07-23 10:41:00,76.7,62.7,29.90,North,4,0.0,1.0,62,0.00,,CLR,0.00,VWS V14.00,2013-07-23 17:41:00,
2013-07-23 10:46:00,77.1,62.6,29.90,North,0,0.0,2.0,61,0.00,,CLR,0.00,VWS V14.00,2013-07-23 17:46:00,
2013-07-23 10:51:00,77.7,62.7,29.90,North,0,0.0,2.0,60,0.00,,CLR,0.00,VWS V14.00,2013-07-23 17:51:00,
2013-07-23 10:56:00,78.1,62.6,29.90,North,0,0.0,2.0,59,0.00,,CLR,0.00,VWS V14.00,2013-07-23 17:56:00,
2013-07-23 11:00:00,78.5,63.0,29.90,NNW,328,1.0,2.0,59,0.00,,CLR,0.00,VWS V14.00,2013-07-23 18:00:00,
2013-07-23 11:01:00,78.8,62.3,29.90,NNW,331,0.0,1.0,57,0.00,,CLR,0.00,VWS V14.00,2013-07-23 18:01:00,
2013-07-23 11:06:00,79.2,62.2,29.89,NNW,327,0.0,1.0,56,0.00,,CLR,0.00,VWS V14.00,2013-07-23 18:06:00,
2013-07-23 11:12:00,79.4,61.8,29.89,West,273,0.0,1.0,55,0.00,,CLR,0.00,VWS V14.00,2013-07-23 18:12:00,
2013-07-23 11:17:00,79.9,62.8,29.89,NW,304,0.0,1.0,56,0.00,,CLR,0.00,VWS V14.00,2013-07-23 18:17:00,
2013-07-23 11:22:00,80.3,61.6,29.89,South,175,0.0,2.0,53,0.00,,CLR,0.00,VWS V14.00,2013-07-23 18:22:00,
2013-07-23 11:27:00,80.8,61.5,29.89,South,186,0.0,2.0,52,0.00,,CLR,0.00,VWS V14.00,2013-07-23 18:27:00,
2013-07-23 11:30:00,80.9,62.2,29.89,South,186,0.0,2.0,53,0.00,,CLR,0.00,VWS V14.00,2013-07-23 18:30:00,
2013-07-23 11:32:00,81.1,61.8,29.88,South,186,0.0,1.0,52,0.00,,CLR,0.00,VWS V14.00,2013-07-23 18:32:00,
2013-07-23 11:37:00,81.7,62.4,29.89,South,186,0.0,1.0,52,0.00,,CLR,0.00,VWS V14.00,2013-07-23 18:37:00,
2013-07-23 11:42:00,82.4,63.6,29.88,South,184,0.0,1.0,53,0.00,,CLR,0.00,VWS V14.00,2013-07-23 18:42:00,
2013-07-23 11:47:00,83.1,63.7,29.88,NNE,32,0.0,2.0,52,0.00,,CLR,0.00,VWS V14.00,2013-07-23 18:47:00,
2013-07-23 11:52:00,83.7,64.2,29.88,East,98,0.0,2.0,52,0.00,,CLR,0.00,VWS V14.00,2013-07-23 18:52:00,
2013-07-23 11:58:00,84.2,63.6,29.88,North,7,1.0,2.0,50,0.00,,CLR,0.00,VWS V14.00,2013-07-23 18:58:00,
2013-07-23 12:00:00,84.5,65.0,29.88,ENE,69,0.0,2.0,52,0.00,,CLR,0.00,VWS V14.00,2013-07-23 19:00:00,
2013-07-23 12:03:00,84.8,64.1,29.88,North,354,0.0,4.0,50,0.00,,CLR,0.00,VWS V14.00,2013-07-23 19:03:00,
2013-07-23 12:08:00,84.9,64.2,29.88,North,355,0.0,4.0,50,0.00,,CLR,0.00,VWS V14.00,2013-07-23 19:08:00,
2013-07-23 12:13:00,84.7,64.0,29.88,NNW,331,1.0,4.0,50,0.00,,CLR,0.00,VWS V14.00,2013-07-23 19:13:00,
2013-07-23 12:18:00,84.9,64.8,29.88,North,354,0.0,4.0,51,0.00,,CLR,0.00,VWS V14.00,2013-07-23 19:18:00,
2013-07-23 12:23:00,85.2,64.5,29.88,NW,311,0.0,4.0,50,0.00,,CLR,0.00,VWS V14.00,2013-07-23 19:23:00,
2013-07-23 12:28:00,85.6,64.8,29.89,NW,314,1.0,4.0,50,0.00,,CLR,0.00,VWS V14.00,2013-07-23 19:28:00,
2013-07-23 12:30:00,85.3,64.0,29.88,NNW,348,1.0,4.0,49,0.00,,CLR,0.00,VWS V14.00,2013-07-23 19:30:00,
2013-07-23 12:33:00,85.5,64.8,29.88,NNW,330,0.0,4.0,50,0.00,,CLR,0.00,VWS V14.00,2013-07-23 19:33:00,
2013-07-23 12:38:00,85.6,64.8,29.88,North,355,2.0,4.0,50,0.00,,CLR,0.00,VWS V14.00,2013-07-23 19:38:00,
2013-07-23 12:43:00,85.2,64.5,29.88,North,0,0.0,5.0,50,0.00,,CLR,0.00,VWS V14.00,2013-07-23 19:43:00,
2013-07-23 12:48:00,85.4,65.2,29.88,North,2,0.0,5.0,51,0.00,,CLR,0.00,VWS V14.00,2013-07-23 19:48:00,
2013-07-23 12:53:00,85.5,64.8,29.88,WNW,284,0.0,5.0,50,0.00,,CLR,0.00,VWS V14.00,2013-07-23 19:53:00,
2013-07-23 12:58:00,85.7,64.9,29.89,NNW,344,0.0,5.0,50,0.00,,CLR,0.00,VWS V14.00,2013-07-23 19:58:00,
2013-07-23 13:00:00,85.8,63.9,29.89,North,359,1.0,5.0,48,0.00,,CLR,0.00,VWS V14.00,2013-07-23 20:00:00,
2013-07-23 13:03:00,85.7,64.4,29.88,NNW,345,1.0,2.0,49,0.00,,CLR,0.00,VWS V14.00,2013-07-23 20:03:00,
2013-07-23 13:09:00,85.8,64.4,29.88,North,359,2.0,4.0,49,0.00,,CLR,0.00,VWS V14.00,2013-07-23 20:09:00,
2013-07-23 13:13:00,86.0,64.6,29.88,North,5,0.0,4.0,49,0.00,,CLR,0.00,VWS V14.00,2013-07-23 20:13:00,
2013-07-23 13:18:00,85.8,63.9,29.88,North,0,0.0,5.0,48,0.00,,CLR,0.00,VWS V14.00,2013-07-23 20:18:00,
2013-07-23 13:24:00,86.4,64.4,29.89,NNW,336,0.0,5.0,48,0.00,,CLR,0.00,VWS V14.00,2013-07-23 20:24:00,
2013-07-23 13:29:00,86.6,64.6,29.89,North,351,0.0,5.0,48,0.00,,CLR,0.00,VWS V14.00,2013-07-23 20:29:00,
2013-07-23 13:30:00,86.6,64.0,29.88,NNW,346,0.0,5.0,47,0.00,,CLR,0.00,VWS V14.00,2013-07-23 20:30:00,
2013-07-23 13:34:00,86.8,64.2,29.88,North,359,0.0,0.0,47,0.00,,CLR,0.00,VWS V14.00,2013-07-23 20:34:00,
2013-07-23 13:39:00,86.8,64.2,29.88,NNW,346,0.0,0.0,47,0.00,,CLR,0.00,VWS V14.00,2013-07-23 20:39:00,
2013-07-23 13:44:00,87.1,63.2,29.88,West,270,0.0,0.0,45,0.00,,CLR,0.00,VWS V14.00,2013-07-23 20:44:00,
2013-07-23 13:49:00,87.1,63.2,29.88,North,3,0.0,0.0,45,0.00,,CLR,0.00,VWS V14.00,2013-07-23 20:49:00,
2013-07-23 13:54:00,87.0,63.1,29.88,North,358,0.0,0.0,45,0.00,,CLR,0.00,VWS V14.00,2013-07-23 20:54:00,
2013-07-23 13:59:00,86.9,62.4,29.88,NW,325,0.0,0.0,44,0.00,,CLR,0.00,VWS V14.00,2013-07-23 20:59:00,
2013-07-23 14:00:00,87.1,62.6,29.88,NW,326,0.0,0.0,44,0.00,,CLR,0.00,VWS V14.00,2013-07-23 21:00:00,
2013-07-23 14:04:00,87.0,62.5,29.88,North,357,0.0,0.0,44,0.00,,CLR,0.00,VWS V14.00,2013-07-23 21:04:00,
2013-07-23 14:10:00,87.2,62.0,29.88,North,0,0.0,0.0,43,0.00,,CLR,0.00,VWS V14.00,2013-07-23 21:10:00,
2013-07-23 14:15:00,87.3,62.7,29.88,North,355,0.0,0.0,44,0.00,,CLR,0.00,VWS V14.00,2013-07-23 21:15:00,
2013-07-23 14:20:00,87.2,62.0,29.88,NW,315,0.0,3.0,43,0.00,,CLR,0.00,VWS V14.00,2013-07-23 21:20:00,
2013-07-23 14:25:00,87.2,62.0,29.88,NNW,339,0.0,3.0,43,0.00,,CLR,0.00,VWS V14.00,2013-07-23 21:25:00,
2013-07-23 14:30:00,86.9,61.1,29.88,North,353,0.0,3.0,42,0.00,,CLR,0.00,VWS V14.00,2013-07-23 21:30:00,
2013-07-23 14:35:00,86.8,61.0,29.87,North,352,0.0,0.0,42,0.00,,CLR,0.00,VWS V14.00,2013-07-23 21:35:00,
2013-07-23 14:40:00,86.7,60.9,29.87,NNW,338,0.0,1.0,42,0.00,,CLR,0.00,VWS V14.00,2013-07-23 21:40:00,
2013-07-23 14:45:00,86.3,61.2,29.87,NNW,327,0.0,1.0,43,0.00,,CLR,0.00,VWS V14.00,2013-07-23 21:45:00,
2013-07-23 14:50:00,86.0,60.9,29.87,North,0,0.0,1.0,43,0.00,,CLR,0.00,VWS V14.00,2013-07-23 21:50:00,
2013-07-23 14:55:00,86.0,60.9,29.87,North,0,0.0,1.0,43,0.00,,CLR,0.00,VWS V14.00,2013-07-23 21:55:00,
2013-07-23 15:00:00,86.1,61.7,29.87,NNE,23,0.0,0.0,44,0.00,,CLR,0.00,VWS V14.00,2013-07-23 22:00:00,
2013-07-23 15:05:00,86.2,61.8,29.87,WSW,253,0.0,0.0,44,0.00,,CLR,0.00,VWS V14.00,2013-07-23 22:05:00,
2013-07-23 15:10:00,86.1,61.7,29.86,North,0,0.0,0.0,44,0.00,,CLR,0.00,VWS V14.00,2013-07-23 22:10:00,
2013-07-23 15:15:00,85.9,62.1,29.86,NNE,12,0.0,0.0,45,0.00,,CLR,0.00,VWS V14.00,2013-07-23 22:15:00,
2013-07-23 15:20:00,86.5,62.0,29.86,NW,316,0.0,0.0,44,0.00,,CLR,0.00,VWS V14.00,2013-07-23 22:20:00,
2013-07-23 15:25:00,87.0,61.8,29.86,North,351,0.0,2.0,43,0.00,,CLR,0.00,VWS V14.00,2013-07-23 22:25:00,
2013-07-23 15:30:00,87.0,61.8,29.86,North,355,0.0,0.0,43,0.00,,CLR,0.00,VWS V14.00,2013-07-23 22:30:00,
2013-07-23 15:35:00,87.6,62.4,29.86,North,8,0.0,0.0,43,0.00,,CLR,0.00,VWS V14.00,2013-07-23 22:35:00,
2013-07-23 15:40:00,88.2,59.4,29.85,North,359,0.0,2.0,38,0.00,,CLR,0.00,VWS V14.00,2013-07-23 22:40:00,
2013-07-23 15:45:00,88.7,61.3,29.86,NNW,339,0.0,2.0,40,0.00,,CLR,0.00,VWS V14.00,2013-07-23 22:45:00,
2013-07-23 15:50:00,88.7,61.3,29.86,WNW,298,0.0,2.0,40,0.00,,CLR,0.00,VWS V14.00,2013-07-23 22:50:00,
2013-07-23 15:55:00,88.9,62.2,29.86,NNW,347,0.0,2.0,41,0.00,,CLR,0.00,VWS V14.00,2013-07-23 22:55:00,
2013-07-23 16:00:00,88.7,60.6,29.86,NW,323,0.0,1.0,39,0.00,,CLR,0.00,VWS V14.00,2013-07-23 23:00:00,
2013-07-23 16:06:00,88.7,61.3,29.86,North,1,0.0,1.0,40,0.00,,CLR,0.00,VWS V14.00,2013-07-23 23:06:00,
2013-07-23 16:11:00,88.2,60.8,29.86,NNW,339,0.0,1.0,40,0.00,,CLR,0.00,VWS V14.00,2013-07-23 23:11:00,
2013-07-23 16:16:00,87.7,60.4,29.85,North,357,0.0,1.0,40,0.00,,CLR,0.00,VWS V14.00,2013-07-23 23:16:00,
2013-07-23 16:21:00,87.5,60.9,29.85,NNE,14,0.0,1.0,41,0.00,,CLR,0.00,VWS V14.00,2013-07-23 23:21:00,
2013-07-23 16:26:00,87.2,61.3,29.85,North,9,0.0,3.0,42,0.00,,CLR,0.00,VWS V14.00,2013-07-23 23:26:00,
2013-07-23 16:30:00,86.9,61.7,29.85,North,0,0.0,3.0,43,0.00,,CLR,0.00,VWS V14.00,2013-07-23 23:30:00,
2013-07-23 16:31:00,87.2,60.7,29.85,North,350,0.0,0.0,41,0.00,,CLR,0.00,VWS V14.00,2013-07-23 23:31:00,
2013-07-23 16:36:00,86.6,60.8,29.85,North,5,0.0,4.0,42,0.00,,CLR,0.00,VWS V14.00,2013-07-23 23:36:00,
2013-07-23 16:41:00,86.5,60.7,29.85,North,356,0.0,4.0,42,0.00,,CLR,0.00,VWS V14.00,2013-07-23 23:41:00,
2013-07-23 16:46:00,85.9,60.2,29.85,NNW,342,0.0,6.0,42,0.00,,CLR,0.00,VWS V14.00,2013-07-23 23:46:00,
2013-07-23 16:51:00,85.6,59.9,29.85,NNW,347,0.0,6.0,42,0.00,,CLR,0.00,VWS V14.00,2013-07-23 23:51:00,
2013-07-23 16:56:00,85.1,59.5,29.85,NNW,345,0.0,6.0,42,0.00,,CLR,0.00,VWS V14.00,2013-07-23 23:56:00,
2013-07-23 17:00:00,84.8,59.8,29.85,North,349,0.0,6.0,43,0.00,,CLR,0.00,VWS V14.00,2013-07-24 00:00:00,
2013-07-23 17:01:00,84.8,59.8,29.85,North,8,2.0,4.0,43,0.00,,CLR,0.00,VWS V14.00,2013-07-24 00:01:00,
2013-07-23 17:06:00,84.0,59.8,29.84,NNW,329,0.0,6.0,44,0.00,,CLR,0.00,VWS V14.00,2013-07-24 00:06:00,
2013-07-23 17:12:00,83.4,59.2,29.85,North,351,0.0,7.0,44,0.00,,CLR,0.00,VWS V14.00,2013-07-24 00:12:00,
2013-07-23 17:17:00,83.8,59.6,29.84,North,353,0.0,7.0,44,0.00,,CLR,0.00,VWS V14.00,2013-07-24 00:17:00,
2013-07-23 17:22:00,83.9,59.7,29.85,North,0,5.0,8.0,44,0.00,,CLR,0.00,VWS V14.00,2013-07-24 00:22:00,
2013-07-23 17:27:00,84.2,59.3,29.85,NNW,347,0.0,8.0,43,0.00,,CLR,0.00,VWS V14.00,2013-07-24 00:27:00,
2013-07-23 17:30:00,84.0,58.5,29.85,North,5,2.0,8.0,42,0.00,,CLR,0.00,VWS V14.00,2013-07-24 00:30:00,
2013-07-23 17:32:00,84.2,59.3,29.85,NNW,342,0.0,4.0,43,0.00,,CLR,0.00,VWS V14.00,2013-07-24 00:32:00,
2013-07-23 17:38:00,84.2,58.0,29.85,WNW,302,3.0,7.0,41,0.00,,CLR,0.00,VWS V14.00,2013-07-24 00:38:00,
2013-07-23 17:43:00,83.8,57.6,29.85,North,10,1.0,8.0,41,0.00,,CLR,0.00,VWS V14.00,2013-07-24 00:43:00,
2013-07-23 17:48:00,83.4,57.3,29.85,North,0,0.0,8.0,41,0.00,,CLR,0.00,VWS V14.00,2013-07-24 00:48:00,
2013-07-23 17:53:00,82.8,56.7,29.85,NW,323,0.0,8.0,41,0.00,,CLR,0.00,VWS V14.00,2013-07-24 00:53:00,
2013-07-23 17:58:00,82.5,55.8,29.85,North,354,0.0,8.0,40,0.00,,CLR,0.00,VWS V14.00,2013-07-24 00:58:00,
2013-07-23 18:00:00,82.6,56.5,29.85,North,0,0.0,8.0,41,0.00,,CLR,0.00,VWS V14.00,2013-07-24 01:00:00,
2013-07-23 18:03:00,82.3,55.6,29.85,NNW,345,0.0,0.0,40,0.00,,CLR,0.00,VWS V14.00,2013-07-24 01:03:00,
2013-07-23 18:08:00,82.3,54.9,29.85,NW,325,0.0,0.0,39,0.00,,CLR,0.00,VWS V14.00,2013-07-24 01:08:00,
2013-07-23 18:13:00,82.4,54.3,29.85,West,268,0.0,0.0,38,0.00,,CLR,0.00,VWS V14.00,2013-07-24 01:13:00,
2013-07-23 18:18:00,82.0,55.3,29.85,North,355,0.0,0.0,40,0.00,,CLR,0.00,VWS V14.00,2013-07-24 01:18:00,
2013-07-23 18:23:00,81.7,57.0,29.85,NNW,338,0.0,6.0,43,0.00,,CLR,0.00,VWS V14.00,2013-07-24 01:23:00,
2013-07-23 18:28:00,81.5,57.5,29.85,NNW,341,0.0,6.0,44,0.00,,CLR,0.00,VWS V14.00,2013-07-24 01:28:00,
2013-07-23 18:30:00,81.4,57.4,29.85,NNE,29,0.0,6.0,44,0.00,,CLR,0.00,VWS V14.00,2013-07-24 01:30:00,
2013-07-23 18:33:00,81.3,56.7,29.85,North,359,3.0,3.0,43,0.00,,CLR,0.00,VWS V14.00,2013-07-24 01:33:00,
2013-07-23 18:39:00,81.1,57.2,29.85,NNW,344,0.0,7.0,44,0.00,,CLR,0.00,VWS V14.00,2013-07-24 01:39:00,
2013-07-23 18:44:00,80.5,57.2,29.85,North,351,0.0,7.0,45,0.00,,CLR,0.00,VWS V14.00,2013-07-24 01:44:00,
2013-07-23 18:49:00,80.6,56.1,29.85,WNW,294,0.0,7.0,43,0.00,,CLR,0.00,VWS V14.00,2013-07-24 01:49:00,
2013-07-23 18:54:00,80.3,55.8,29.86,North,354,0.0,7.0,43,0.00,,CLR,0.00,VWS V14.00,2013-07-24 01:54:00,
2013-07-23 18:59:00,79.8,55.3,29.85,North,354,0.0,7.0,43,0.00,,CLR,0.00,VWS V14.00,2013-07-24 01:59:00,
2013-07-23 19:00:00,79.5,55.7,29.85,North,7,0.0,7.0,44,0.00,,CLR,0.00,VWS V14.00,2013-07-24 02:00:00,
2013-07-23 19:04:00,79.3,56.8,29.86,North,357,0.0,2.0,46,0.00,,CLR,0.00,VWS V14.00,2013-07-24 02:04:00,
2013-07-23 19:09:00,79.2,57.2,29.86,North,0,0.0,2.0,47,0.00,,CLR,0.00,VWS V14.00,2013-07-24 02:09:00,
2013-07-23 19:14:00,78.9,57.6,29.86,NNW,345,0.0,5.0,48,0.00,,CLR,0.00,VWS V14.00,2013-07-24 02:14:00,
2013-07-23 19:19:00,78.7,58.0,29.86,North,0,2.0,5.0,49,0.00,,CLR,0.00,VWS V14.00,2013-07-24 02:19:00,
2013-07-23 19:24:00,78.0,57.3,29.86,North,349,3.0,5.0,49,0.00,,CLR,0.00,VWS V14.00,2013-07-24 02:24:00,
2013-07-23 19:29:00,77.7,57.6,29.86,North,349,0.0,5.0,50,0.00,,CLR,0.00,VWS V14.00,2013-07-24 02:29:00,
2013-07-23 19:30:00,77.6,57.5,29.87,North,358,0.0,5.0,50,0.00,,CLR,0.00,VWS V14.00,2013-07-24 02:30:00,
2013-07-23 19:35:00,77.2,57.1,29.86,North,356,0.0,3.0,50,0.00,,CLR,0.00,VWS V14.00,2013-07-24 02:35:00,
2013-07-23 19:40:00,76.9,56.9,29.86,North,0,0.0,3.0,50,0.00,,CLR,0.00,VWS V14.00,2013-07-24 02:40:00,
2013-07-23 19:45:00,76.7,56.7,29.86,NNW,347,1.0,5.0,50,0.00,,CLR,0.00,VWS V14.00,2013-07-24 02:45:00,
2013-07-23 19:50:00,76.2,56.8,29.86,NW,323,0.0,5.0,51,0.00,,CLR,0.00,VWS V14.00,2013-07-24 02:50:00,
2013-07-23 19:55:00,75.9,56.5,29.86,NW,326,0.0,5.0,51,0.00,,CLR,0.00,VWS V14.00,2013-07-24 02:55:00,
2013-07-23 20:00:00,75.2,55.8,29.86,NNW,338,0.0,5.0,51,0.00,,CLR,0.00,VWS V14.00,2013-07-24 03:00:00,
2013-07-23 20:05:00,75.2,56.4,29.87,North,353,0.0,1.0,52,0.00,,CLR,0.00,VWS V14.00,2013-07-24 03:05:00,
2013-07-23 20:10:00,74.9,56.1,29.87,NW,305,0.0,1.0,52,0.00,,CLR,0.00,VWS V14.00,2013-07-24 03:10:00,
2013-07-23 20:15:00,74.4,55.7,29.87,NNW,348,0.0,4.0,52,0.00,,CLR,0.00,VWS V14.00,2013-07-24 03:15:00,
2013-07-23 20:20:00,74.4,56.2,29.87,SSE,166,0.0,4.0,53,0.00,,CLR,0.00,VWS V14.00,2013-07-24 03:20:00,
2013-07-23 20:25:00,74.0,55.3,29.86,North,357,0.0,4.0,52,0.00,,CLR,0.00,VWS V14.00,2013-07-24 03:25:00,
2013-07-23 20:30:00,73.9,55.2,29.87,North,354,0.0,0.0,52,0.00,,CLR,0.00,VWS V14.00,2013-07-24 03:30:00,
2013-07-23 20:35:00,73.5,54.8,29.87,North,2,0.0,2.0,52,0.00,,CLR,0.00,VWS V14.00,2013-07-24 03:35:00,
2013-07-23 20:40:00,73.5,55.9,29.87,WSW,247,0.0,2.0,54,0.00,,CLR,0.00,VWS V14.00,2013-07-24 03:40:00,
2013-07-23 20:45:00,73.2,55.6,29.87,North,0,0.0,2.0,54,0.00,,CLR,0.00,VWS V14.00,2013-07-24 03:45:00,
2013-07-23 20:50:00,72.9,56.3,29.87,North,0,0.0,2.0,56,0.00,,CLR,0.00,VWS V14.00,2013-07-24 03:50:00,
2013-07-23 20:56:00,72.8,56.2,29.88,NNW,342,0.0,2.0,56,0.00,,CLR,0.00,VWS V14.00,2013-07-24 03:56:00,
2013-07-23 21:00:00,72.5,56.4,29.87,NNW,342,0.0,2.0,57,0.00,,CLR,0.00,VWS V14.00,2013-07-24 04:00:00,
2013-07-23 21:01:00,72.5,56.4,29.88,NNW,342,0.0,0.0,57,0.00,,CLR,0.00,VWS V14.00,2013-07-24 04:01:00,
2013-07-23 21:06:00,72.5,56.9,29.88,NNW,347,0.0,0.0,58,0.00,,CLR,0.00,VWS V14.00,2013-07-24 04:06:00,
2013-07-23 21:11:00,72.3,56.7,29.88,NNW,347,0.0,0.0,58,0.00,,CLR,0.00,VWS V14.00,2013-07-24 04:11:00,
2013-07-23 21:16:00,72.2,56.6,29.87,NNW,347,0.0,0.0,58,0.00,,CLR,0.00,VWS V14.00,2013-07-24 04:16:00,
2013-07-23 21:21:00,72.0,56.4,29.88,NNW,347,0.0,0.0,58,0.00,,CLR,0.00,VWS V14.00,2013-07-24 04:21:00,
2013-07-23 21:26:00,71.9,56.3,29.88,NNW,347,0.0,0.0,58,0.00,,CLR,0.00,VWS V14.00,2013-07-24 04:26:00,
2013-07-23 21:30:00,71.9,56.3,29.88,NNW,347,0.0,0.0,58,0.00,,CLR,0.00,VWS V14.00,2013-07-24 04:30:00,
2013-07-23 21:31:00,71.7,55.7,29.88,NNW,347,0.0,0.0,57,0.00,,CLR,0.00,VWS V14.00,2013-07-24 04:31:00,
2013-07-23 21:36:00,71.7,56.2,29.88,NNW,347,0.0,0.0,58,0.00,,CLR,0.00,VWS V14.00,2013-07-24 04:36:00,
2013-07-23 21:41:00,71.4,56.3,29.88,NNW,347,0.0,0.0,59,0.00,,CLR,0.00,VWS V14.00,2013-07-24 04:41:00,
2013-07-23 21:46:00,71.4,56.8,29.88,North,350,0.0,0.0,60,0.00,,CLR,0.00,VWS V14.00,2013-07-24 04:46:00,
2013-07-23 21:51:00,71.3,56.7,29.88,North,350,0.0,0.0,60,0.00,,CLR,0.00,VWS V14.00,2013-07-24 04:51:00,
2013-07-23 21:56:00,71.1,56.5,29.88,North,350,0.0,0.0,60,0.00,,CLR,0.00,VWS V14.00,2013-07-24 04:56:00,
2013-07-23 22:00:00,71.1,57.0,29.89,North,350,0.0,0.0,61,0.00,,CLR,0.00,VWS V14.00,2013-07-24 05:00:00,
2013-07-23 22:01:00,70.8,56.7,29.88,North,350,0.0,0.0,61,0.00,,CLR,0.00,VWS V14.00,2013-07-24 05:01:00,
2013-07-23 22:06:00,70.5,56.9,29.88,North,350,0.0,0.0,62,0.00,,CLR,0.00,VWS V14.00,2013-07-24 05:06:00,
2013-07-23 22:11:00,70.5,56.9,29.88,North,350,0.0,0.0,62,0.00,,CLR,0.00,VWS V14.00,2013-07-24 05:11:00,
2013-07-23 22:16:00,70.6,57.4,29.88,North,350,0.0,0.0,63,0.00,,CLR,0.00,VWS V14.00,2013-07-24 05:16:00,
2013-07-23 22:21:00,70.3,57.1,29.88,North,350,0.0,0.0,63,0.00,,CLR,0.00,VWS V14.00,2013-07-24 05:21:00,
2013-07-23 22:26:00,69.9,57.2,29.88,North,350,0.0,0.0,64,0.00,,CLR,0.00,VWS V14.00,2013-07-24 05:26:00,
2013-07-23 22:30:00,69.9,57.2,29.88,North,350,0.0,0.0,64,0.00,,CLR,0.00,VWS V14.00,2013-07-24 05:30:00,
2013-07-23 22:31:00,69.8,57.5,29.88,North,350,0.0,0.0,65,0.00,,CLR,0.00,VWS V14.00,2013-07-24 05:31:00,
2013-07-23 22:36:00,69.8,57.1,29.88,North,350,0.0,0.0,64,0.00,,CLR,0.00,VWS V14.00,2013-07-24 05:36:00,
2013-07-23 22:41:00,69.9,57.2,29.88,North,350,0.0,0.0,64,0.00,,CLR,0.00,VWS V14.00,2013-07-24 05:41:00,
2013-07-23 22:46:00,69.7,57.0,29.88,North,350,0.0,0.0,64,0.00,,CLR,0.00,VWS V14.00,2013-07-24 05:46:00,
2013-07-23 22:51:00,69.5,56.8,29.88,North,350,0.0,0.0,64,0.00,,CLR,0.00,VWS V14.00,2013-07-24 05:51:00,
2013-07-23 22:56:00,69.1,56.4,29.88,North,350,0.0,0.0,64,0.00,,CLR,0.00,VWS V14.00,2013-07-24 05:56:00,
2013-07-23 23:00:00,69.2,56.5,29.88,North,350,0.0,0.0,64,0.00,,CLR,0.00,VWS V14.00,2013-07-24 06:00:00,
2013-07-23 23:01:00,69.1,56.8,29.88,North,350,0.0,0.0,65,0.00,,CLR,0.00,VWS V14.00,2013-07-24 06:01:00,
2013-07-23 23:06:00,68.8,56.6,29.88,North,350,0.0,0.0,65,0.00,,CLR,0.00,VWS V14.00,2013-07-24 06:06:00,
2013-07-23 23:11:00,68.6,56.4,29.88,North,350,0.0,0.0,65,0.00,,CLR,0.00,VWS V14.00,2013-07-24 06:11:00,
2013-07-23 23:16:00,68.8,57.0,29.88,North,350,0.0,0.0,66,0.00,,CLR,0.00,VWS V14.00,2013-07-24 06:16:00,
2013-07-23 23:21:00,68.6,56.8,29.88,North,350,0.0,0.0,66,0.00,,CLR,0.00,VWS V14.00,2013-07-24 06:21:00,
2013-07-23 23:26:00,68.7,57.3,29.88,North,350,0.0,0.0,67,0.00,,CLR,0.00,VWS V14.00,2013-07-24 06:26:00,
2013-07-23 23:30:00,68.6,57.2,29.88,North,350,0.0,0.0,67,0.00,,CLR,0.00,VWS V14.00,2013-07-24 06:30:00,
2013-07-23 23:31:00,68.4,57.0,29.88,North,350,0.0,0.0,67,0.00,,CLR,0.00,VWS V14.00,2013-07-24 06:31:00,
2013-07-23 23:36:00,68.5,57.1,29.88,North,350,0.0,0.0,67,0.00,,CLR,0.00,VWS V14.00,2013-07-24 06:36:00,
2013-07-23 23:41:00,68.2,57.2,29.88,North,351,0.0,0.0,68,0.00,,CLR,0.00,VWS V14.00,2013-07-24 06:41:00,
2013-07-23 23:46:00,67.8,57.3,29.88,North,352,0.0,0.0,69,0.00,,CLR,0.00,VWS V14.00,2013-07-24 06:46:00,
2013-07-23 23:51:00,67.8,57.3,29.88,North,0,0.0,0.0,69,0.00,,CLR,0.00,VWS V14.00,2013-07-24 06:51:00,
2013-07-23 23:56:00,67.9,57.4,29.88,North,0,0.0,0.0,69,0.00,,CLR,0.00,VWS V14.00,2013-07-24 06:56:00,